This is the latest recevied weather packets stored in our database for station/object IZ3VCM. If no packets are shown the sender has not sent any weather packets the latest 10 day(s).
| Time | Temp. | Humidity | Pressure | Rain* | Wind** | Luminosity | Snow |
|---|---|---|---|---|---|---|---|
| 1777626005 | 19.44° C | 39% | 1028.1 hPa | 0 mm | - | - | - |
| 1777625104 | 19.44° C | 37% | 1028.1 hPa | 0 mm | - | - | - |
| 1777624206 | 19.44° C | 40% | 1028 hPa | 0 mm | - | - | - |
| 1777623303 | 18.89° C | 46% | 1027.9 hPa | 0 mm | - | - | - |
| 1777622407 | 18.89° C | 46% | 1027.9 hPa | 0 mm | - | - | - |
| 1777621503 | 18.89° C | 48% | 1027.8 hPa | 0 mm | - | - | - |
| 1777620606 | 17.78° C | 48% | 1027.9 hPa | 0 mm | - | - | - |
| 1777619704 | 17.22° C | 48% | 1027.8 hPa | 0 mm | - | - | - |
| 1777618806 | 17.22° C | 50% | 1027.7 hPa | 0 mm | - | - | - |
| 1777617903 | 16.67° C | 51% | 1027.6 hPa | 0 mm | - | - | - |
| 1777617006 | 16.11° C | 57% | 1027.6 hPa | 0 mm | - | - | - |
| 1777616103 | 13.89° C | 60% | 1027.5 hPa | 0 mm | - | - | - |
| 1777587304 | 6.67° C | 73% | 1026.3 hPa | 0 mm | - | - | - |
| 1777586406 | 6.67° C | 72% | 1026.2 hPa | 0 mm | - | - | - |
| 1777585504 | 7.22° C | 70% | 1026 hPa | 0 mm | - | - | - |
| 1777584606 | 7.78° C | 67% | 1025.8 hPa | 0 mm | - | - | - |
| 1777583704 | 8.33° C | 65% | 1025.7 hPa | 0 mm | - | - | - |
| 1777582806 | 9.44° C | 60% | 1025.6 hPa | 0 mm | - | - | - |
| 1777581903 | 10° C | 57% | 1025.5 hPa | 0 mm | - | - | - |
| 1777581006 | 11.67° C | 54% | 1025.3 hPa | 0 mm | - | - | - |
| 1777580103 | 11.67° C | 53% | 1025.1 hPa | 0 mm | - | - | - |
| 1777579206 | 11.67° C | 53% | 1024.9 hPa | 0 mm | - | - | - |
| 1777578306 | 11.67° C | 53% | 1024.9 hPa | 0 mm | - | - | - |
| 1777577406 | 12.22° C | 52% | 1024.8 hPa | 0 mm | - | - | - |
| 1777576504 | 12.22° C | 51% | 1024.5 hPa | 0 mm | - | - | - |
* Rain latest hour (hover to see other rain measurements)
** Current wind speed in m/s (hover to see current wind gust speed)